Time;durP1;ratioP1;P1;durP2;ratioP2;P2;SDS_P1;SDS_P2;PMS_P1;PMS_P2;Temp;Humidity;BMP_temperature;BMP_pressure;BME280_temperature;BME280_humidity;BME280_pressure;Samples;Min_cycle;Max_cycle;Signal;HPM_P1;HPM_P2
2023/07/01 08:56:40;;;;;;;19.75;6.50;;;;;;;24.08;49.39;97750.31;4999360;28;20531;-89
2023/07/01 08:59:07;;;;;;;16.13;5.93;;;;;;;24.20;51.46;97764.75;5007279;28;20042;-89
2023/07/01 09:01:38;;;;;;;23.58;7.43;;;;;;;23.94;50.26;97714.44;4983040;28;20058;-93
2023/07/01 09:04:05;;;;;;;16.05;6.85;;;;;;;23.90;47.95;97734.03;4956013;29;20047;-92
2023/07/01 09:06:51;;;;;;;16.55;6.65;;;;;;;23.99;49.47;97727.84;4969750;29;20039;-90
2023/07/01 09:09:50;;;;;;;8.95;5.80;;;;;;;24.28;47.86;97757.75;4955059;29;20192;-90
2023/07/01 09:12:29;;;;;;;27.02;6.88;;;;;;;24.11;48.68;97729.13;4934754;29;20051;-86
2023/07/01 09:15:07;;;;;;;24.10;7.05;;;;;;;24.25;48.06;97750.25;4945061;29;20039;-88
2023/07/01 09:17:47;;;;;;;28.52;7.43;;;;;;;24.12;49.52;97706.31;4959780;29;20051;-88
2023/07/01 09:20:13;;;;;;;27.33;8.25;;;;;;;24.59;48.08;97753.22;4953947;29;20059;-89
2023/07/01 09:23:25;;;;;;;22.83;8.10;;;;;;;24.44;46.98;97710.22;4955776;28;20094;-88
2023/07/01 09:25:52;;;;;;;23.77;8.45;;;;;;;24.53;47.09;97715.91;4966486;29;20015;-94
2023/07/01 09:28:38;;;;;;;13.45;6.95;;;;;;;24.41;46.24;97746.63;4929138;28;20522;-87
2023/07/01 09:31:11;;;;;;;15.52;7.57;;;;;;;24.45;47.35;97755.69;4965782;28;20031;-85
2023/07/01 09:33:55;;;;;;;18.67;6.80;;;;;;;24.52;47.93;97745.06;4971783;28;20047;-86
2023/07/01 09:36:36;;;;;;;24.67;8.52;;;;;;;24.70;45.60;97763.28;4994420;28;20049;-89
2023/07/01 09:39:05;;;;;;;21.35;8.20;;;;;;;24.70;46.36;97738.97;5004616;28;20047;-88
2023/07/01 09:42:04;;;;;;;28.98;8.07;;;;;;;25.12;46.23;97763.22;5012922;28;20089;-90
2023/07/01 09:45:15;;;;;;;30.90;8.80;;;;;;;25.19;44.96;97763.00;5010794;28;20053;-90
2023/07/01 09:48:00;;;;;;;9.45;6.97;;;;;;;24.90;45.30;97757.50;4958676;28;20022;-88
2023/07/01 09:53:35;;;;;;;21.08;7.38;;;;;;;24.74;47.78;97722.06;3067983;23;20050;-86
2023/07/01 09:56:48;;;;;;;17.33;7.28;;;;;;;25.21;46.67;97760.53;4977826;28;20039;-87
2023/07/01 09:59:15;;;;;;;11.52;6.88;;;;;;;24.97;42.05;97746.09;4920243;29;20048;-85
2023/07/01 10:02:16;;;;;;;20.10;7.40;;;;;;;25.03;44.92;97749.88;4905363;29;20024;-87
2023/07/01 10:05:26;;;;;;;13.23;6.65;;;;;;;24.94;43.69;97742.19;4847123;29;20062;-85
2023/07/01 10:08:48;;;;;;;13.32;7.35;;;;;;;24.86;43.00;97754.81;4849888;29;20056;-87
2023/07/01 10:11:31;;;;;;;16.30;7.18;;;;;;;24.94;43.59;97749.81;4838620;29;20034;-88
2023/07/01 10:14:06;;;;;;;14.45;7.30;;;;;;;24.65;42.27;97716.38;4895950;23;20062;-91
2023/07/01 10:16:44;;;;;;;10.50;7.03;;;;;;;24.81;43.13;97747.00;4970801;29;20039;-93
2023/07/01 10:19:49;;;;;;;9.93;7.15;;;;;;;25.07;41.28;97756.94;4966086;28;20047;-87
2023/07/01 10:23:11;;;;;;;16.30;10.98;;;;;;;25.36;42.96;97753.22;4983884;28;20058;-87
2023/07/01 10:25:44;;;;;;;11.05;6.78;;;;;;;25.40;42.49;97756.69;4967210;28;20122;-89
2023/07/01 10:28:14;;;;;;;17.83;7.50;;;;;;;25.49;43.40;97726.00;4947120;28;20034;-87
2023/07/01 10:31:09;;;;;;;9.75;6.70;;;;;;;25.74;40.77;97757.94;4950661;29;20039;-89
2023/07/01 10:33:35;;;;;;;;;;;;;;;25.77;40.75;97759.84;4939572;29;20457;-90
2023/07/01 10:36:10;;;;;;;18.52;7.25;;;;;;;25.63;40.39;97757.53;4952525;29;20458;-86
2023/07/01 10:38:37;;;;;;;17.05;7.28;;;;;;;25.43;42.07;97733.41;4929941;29;20099;-87
2023/07/01 10:41:06;;;;;;;12.88;6.88;;;;;;;25.35;41.78;97765.66;4921954;29;20048;-85
2023/07/01 10:43:37;;;;;;;19.08;7.03;;;;;;;25.28;42.91;97743.53;4931177;28;20038;-83
2023/07/01 10:46:04;;;;;;;16.67;7.55;;;;;;;25.43;42.84;97736.22;4929470;29;20083;-87
2023/07/01 10:48:31;;;;;;;12.95;7.43;;;;;;;25.54;40.59;97727.47;4938275;29;20067;-90
2023/07/01 10:51:52;;;;;;;11.60;7.38;;;;;;;25.86;40.43;97754.34;4939158;29;20059;-89
2023/07/01 10:54:48;;;;;;;9.98;6.95;;;;;;;25.74;39.64;97755.16;4930239;29;20046;-84
2023/07/01 10:57:38;;;;;;;12.27;8.35;;;;;;;25.55;40.76;97757.75;4931447;29;20043;-85
2023/07/01 11:00:35;;;;;;;11.75;7.95;;;;;;;25.39;38.93;97754.34;4899354;29;20111;-93
2023/07/01 11:03:27;;;;;;;15.73;7.65;;;;;;;25.48;41.83;97751.63;4904603;29;20089;-88
2023/07/01 11:06:04;;;;;;;12.93;6.68;;;;;;;25.52;39.23;97741.09;4861873;29;20116;-85
2023/07/01 11:08:35;;;;;;;11.80;7.13;;;;;;;25.82;38.87;97762.06;4852150;29;20045;-87
2023/07/01 11:11:03;;;;;;;20.60;7.00;;;;;;;25.98;40.44;97747.13;4908399;29;20052;-86
2023/07/01 11:13:30;;;;;;;16.08;6.80;;;;;;;26.01;38.05;97743.41;4928614;29;20051;-93
2023/07/01 11:16:28;;;;;;;23.52;7.55;;;;;;;26.07;37.79;97752.78;4920825;29;20115;-86
2023/07/01 11:18:58;;;;;;;14.75;7.05;;;;;;;26.11;38.77;97727.47;4867768;29;20072;-82
2023/07/01 11:21:27;;;;;;;9.18;6.90;;;;;;;26.13;38.89;97722.19;4880596;29;20498;-82
2023/07/01 11:23:55;;;;;;;10.25;7.10;;;;;;;26.43;40.15;97738.25;4866607;29;20049;-86
2023/07/01 11:26:30;;;;;;;10.45;6.68;;;;;;;26.48;36.96;97753.72;4860947;29;20049;-85
2023/07/01 11:28:57;;;;;;;13.93;6.95;;;;;;;26.72;39.28;97742.75;4876835;29;20140;-83
2023/07/01 11:31:30;;;;;;;10.57;6.88;;;;;;;26.54;37.67;97731.47;4857309;29;20050;-89
2023/07/01 11:34:07;;;;;;;10.65;6.55;;;;;;;26.62;37.01;97716.75;4891600;29;20045;-92
2023/07/01 11:36:40;;;;;;;15.57;7.40;;;;;;;26.83;36.63;97745.94;4895945;29;20043;-92
2023/07/01 11:39:13;;;;;;;11.90;7.85;;;;;;;26.70;36.43;97720.03;4937549;29;20539;-87
2023/07/01 11:42:03;;;;;;;9.32;6.57;;;;;;;26.99;35.61;97750.53;4918227;29;20059;-88
2023/07/01 11:44:46;;;;;;;16.08;7.53;;;;;;;27.10;36.11;97750.88;4931290;29;20035;-93
2023/07/01 11:47:58;;;;;;;18.17;7.80;;;;;;;26.73;35.61;97698.72;4932001;29;20104;-91
2023/07/01 11:50:24;;;;;;;11.57;7.65;;;;;;;26.54;36.66;97715.44;4903959;29;20055;-88
2023/07/01 11:53:22;;;;;;;11.48;6.93;;;;;;;26.78;36.81;97754.94;4949363;29;20035;-89
2023/07/01 11:55:48;;;;;;;26.50;8.23;;;;;;;26.97;38.44;97744.59;4941270;29;20047;-91
2023/07/01 11:58:27;;;;;;;12.25;7.55;;;;;;;26.85;36.34;97709.03;4939231;29;20054;-91
2023/07/01 12:00:59;;;;;;;15.95;7.40;;;;;;;27.14;37.60;97750.75;4954950;29;20058;-90
2023/07/01 12:03:55;;;;;;;8.10;5.80;;;;;;;26.55;36.06;97699.41;4952503;29;20091;-89
2023/07/01 12:06:31;;;;;;;31.17;7.55;;;;;;;26.63;36.68;97721.09;4891226;29;20053;-93
2023/07/01 12:09:03;;;;;;;14.70;6.63;;;;;;;26.56;34.16;97720.59;4874906;29;20068;-92
2023/07/01 12:12:10;;;;;;;15.40;6.82;;;;;;;26.94;34.94;97759.53;4893024;29;20052;-91
2023/07/01 12:15:00;;;;;;;11.32;6.78;;;;;;;27.13;34.98;97730.34;4887130;29;20049;-92
2023/07/01 12:17:37;;;;;;;17.35;6.82;;;;;;;27.32;36.44;97722.75;4908452;29;20064;-91
2023/07/01 12:20:39;;;;;;;25.30;6.70;;;;;;;27.48;35.61;97724.47;4894977;29;20177;-93
2023/07/01 12:23:21;;;;;;;20.08;7.05;;;;;;;27.44;33.27;97734.28;4838408;29;20087;-93
2023/07/01 12:29:05;;;;;;;7.90;6.30;;;;;;;26.57;34.72;97702.53;4857294;29;20084;-90
2023/07/01 12:31:56;;;;;;;11.55;7.20;;;;;;;27.07;35.99;97746.19;4853821;29;20058;-91
2023/07/01 12:34:32;;;;;;;17.92;7.03;;;;;;;27.09;35.66;97751.34;5050376;23;20059;-92
2023/07/01 12:37:04;;;;;;;;;;;;;;;27.23;35.37;97750.00;4926634;29;20130;-89
2023/07/01 12:40:07;;;;;;;8.52;6.85;;;;;;;27.12;34.65;97699.94;4959652;29;19986;-88
2023/07/01 12:42:40;;;;;;;7.72;6.65;;;;;;;27.36;35.46;97720.56;5055402;23;20438;-93
2023/07/01 12:45:21;;;;;;;9.27;7.22;;;;;;;27.47;35.46;97720.09;5015285;23;20624;-90
2023/07/01 12:47:52;;;;;;;10.02;7.53;;;;;;;27.59;36.48;97752.88;4934492;29;20058;-87
2023/07/01 12:50:31;;;;;;;13.23;7.22;;;;;;;27.37;36.13;97741.75;4933547;29;20058;-90
2023/07/01 12:52:58;;;;;;;16.85;7.15;;;;;;;27.09;34.94;97721.28;4929583;29;20055;-89
2023/07/01 12:55:49;;;;;;;20.38;7.82;;;;;;;27.37;36.43;97769.06;4934190;29;20044;-89
2023/07/01 12:58:55;;;;;;;10.38;7.10;;;;;;;26.96;36.92;97764.69;4859280;29;20056;-92
2023/07/01 13:01:30;;;;;;;10.23;7.28;;;;;;;26.45;37.48;97746.97;4912673;29;20138;-89
2023/07/01 13:03:57;;;;;;;13.52;8.05;;;;;;;26.47;37.97;97750.13;4913886;29;20094;-90
2023/07/01 13:06:41;;;;;;;16.17;7.35;;;;;;;26.58;37.72;97748.94;4929742;29;20059;-90
2023/07/01 13:09:11;;;;;;;19.33;7.18;;;;;;;26.57;37.02;97747.38;4925764;29;20123;-88
2023/07/01 13:12:22;;;;;;;12.57;6.88;;;;;;;26.59;38.18;97742.06;4916419;29;20036;-90
2023/07/01 13:15:26;;;;;;;20.10;8.70;;;;;;;26.88;36.79;97759.34;4965410;29;20114;-91
2023/07/01 13:18:06;;;;;;;15.73;7.47;;;;;;;26.55;38.74;97716.22;4970606;29;20040;-91
2023/07/01 13:20:36;;;;;;;10.40;7.28;;;;;;;26.65;37.56;97746.63;4968733;29;20066;-89
2023/07/01 13:23:06;;;;;;;15.55;8.00;;;;;;;26.89;36.91;97760.16;4964618;29;20055;-90
2023/07/01 13:26:08;;;;;;;15.85;7.63;;;;;;;27.04;37.42;97751.94;4969251;29;20047;-93
2023/07/01 13:28:47;;;;;;;14.73;7.50;;;;;;;27.05;36.14;97719.84;4971325;29;20074;-91
2023/07/01 13:31:38;;;;;;;12.73;7.10;;;;;;;27.28;35.49;97724.91;4971349;29;20058;-91
2023/07/01 13:34:22;;;;;;;8.02;6.47;;;;;;;27.68;37.25;97756.94;4863241;29;20558;-92
2023/07/01 13:37:54;;;;;;;12.55;7.38;;;;;;;27.49;35.09;97759.72;4859400;29;20069;-93
2023/07/01 13:40:23;;;;;;;17.42;7.47;;;;;;;27.33;34.13;97746.75;4842739;29;20511;-91
2023/07/01 13:42:49;;;;;;;17.42;7.72;;;;;;;27.17;35.64;97727.38;4876759;29;20512;-90
2023/07/01 13:45:41;;;;;;;18.98;7.78;;;;;;;27.70;38.32;97760.84;4877437;29;20055;-94
2023/07/01 13:48:07;;;;;;;15.65;7.80;;;;;;;27.66;34.95;97768.63;4886140;29;20076;-92
2023/07/01 13:50:38;;;;;;;17.58;7.55;;;;;;;27.66;35.87;97765.81;4872433;29;20126;-92
2023/07/01 13:53:09;;;;;;;13.18;7.35;;;;;;;27.44;34.87;97737.88;4841438;29;20056;-91
2023/07/01 13:55:54;;;;;;;19.13;7.82;;;;;;;27.53;34.99;97765.19;4867932;29;20049;-93
2023/07/01 13:58:45;;;;;;;10.32;7.05;;;;;;;27.46;35.60;97757.84;4854321;29;20113;-92
2023/07/01 14:02:20;;;;;;;9.35;7.55;;;;;;;27.68;37.34;97762.53;4874294;29;20158;-93
2023/07/01 14:04:47;;;;;;;12.32;7.90;;;;;;;27.45;35.67;97733.03;4862308;29;20065;-91
2023/07/01 14:07:23;;;;;;;12.70;8.07;;;;;;;27.52;36.86;97711.09;4876171;29;20036;-93
2023/07/01 14:10:26;;;;;;;15.73;7.88;;;;;;;28.00;35.75;97764.00;4878676;29;20041;-91
2023/07/01 14:13:05;;;;;;;11.93;7.47;;;;;;;27.86;36.26;97726.88;4920823;29;20051;-93
2023/07/01 14:16:23;;;;;;;14.68;8.35;;;;;;;28.15;35.94;97755.72;4933028;29;20044;-95
2023/07/01 14:19:05;;;;;;;22.30;8.18;;;;;;;28.02;36.39;97728.56;4899702;29;20111;-91
2023/07/01 14:22:17;;;;;;;12.20;7.53;;;;;;;28.40;35.52;97761.00;4947127;29;20107;-92
2023/07/01 14:24:51;;;;;;;13.07;7.22;;;;;;;28.13;35.19;97725.28;4948889;29;20066;-93
2023/07/01 14:27:40;;;;;;;15.00;7.57;;;;;;;28.15;34.61;97744.50;4936339;29;20040;-90
2023/07/01 14:34:06;;;;;;;8.63;7.25;;;;;;;27.77;34.96;97695.19;4933981;29;20051;-92
2023/07/01 14:36:54;;;;;;;16.27;7.70;;;;;;;28.08;35.20;97734.34;4899883;29;20042;-93
2023/07/01 14:39:55;;;;;;;12.10;7.57;;;;;;;28.29;35.51;97741.03;4936572;29;20112;-94
2023/07/01 14:42:43;;;;;;;10.80;7.82;;;;;;;28.38;33.70;97755.06;4924880;29;20075;-92
2023/07/01 14:45:11;;;;;;;15.93;8.68;;;;;;;28.13;35.32;97705.63;4930473;29;20039;-92
2023/07/01 14:48:27;;;;;;;23.40;8.30;;;;;;;28.43;34.40;97748.81;4914142;29;20028;-94
2023/07/01 14:50:56;;;;;;;14.98;7.68;;;;;;;28.41;33.28;97740.09;4929466;29;20052;-94
2023/07/01 14:56:27;;;;;;;13.60;8.35;;;;;;;28.54;33.24;97748.31;4971897;28;20065;-91
2023/07/01 14:59:32;;;;;;;13.57;8.00;;;;;;;28.11;33.59;97694.06;4953724;28;20055;-95
2023/07/01 15:02:05;;;;;;;14.65;8.32;;;;;;;28.52;35.71;97753.66;4940037;28;20141;-91
2023/07/01 15:04:35;;;;;;;11.82;7.28;;;;;;;28.18;34.34;97749.13;4943847;29;20049;-94
2023/07/01 15:07:01;;;;;;;12.65;8.38;;;;;;;27.66;36.61;97715.31;4920540;29;20043;-90
2023/07/01 15:11:01;;;;;;;13.48;7.75;;;;;;;27.48;35.59;97760.19;4952305;29;20047;-93
2023/07/01 15:14:32;;;;;;;10.40;7.55;;;;;;;27.23;34.91;97752.81;4919898;29;20040;-92
2023/07/01 15:17:52;;;;;;;13.20;7.05;;;;;;;27.21;36.67;97763.69;4935785;29;20035;-92
2023/07/01 15:20:45;;;;;;;18.98;7.90;;;;;;;27.13;35.81;97763.22;4925120;29;20115;-94
2023/07/01 15:23:29;;;;;;;15.90;7.93;;;;;;;26.69;36.32;97718.47;4925080;29;20071;-93
2023/07/01 15:25:58;;;;;;;12.75;7.70;;;;;;;26.65;36.72;97749.44;4944467;28;20106;-90
2023/07/01 15:29:02;;;;;;;15.75;8.93;;;;;;;26.53;35.82;97755.94;4979476;28;20030;-90
2023/07/01 15:31:53;;;;;;;26.65;9.38;;;;;;;26.66;35.65;97772.66;4964705;28;20043;-92
2023/07/01 15:34:30;;;;;;;19.35;8.38;;;;;;;26.56;36.40;97726.22;4964033;28;20043;-92
2023/07/01 15:37:06;;;;;;;20.17;9.68;;;;;;;26.89;36.23;97744.09;4982249;28;20125;-92
2023/07/01 15:39:33;;;;;;;17.77;8.77;;;;;;;27.04;36.30;97740.72;4980561;28;20046;-92
2023/07/01 15:42:15;;;;;;;13.02;7.45;;;;;;;27.02;36.06;97762.81;4964970;28;20150;-91
2023/07/01 15:44:56;;;;;;;15.57;7.53;;;;;;;26.72;36.82;97751.19;4948763;28;20093;-90
2023/07/01 15:47:40;;;;;;;13.02;7.55;;;;;;;26.76;36.25;97777.06;4948665;28;20114;-90
2023/07/01 15:50:10;;;;;;;14.75;7.75;;;;;;;26.66;36.92;97772.66;4993345;28;20039;-90
2023/07/01 15:53:02;;;;;;;16.20;7.80;;;;;;;26.34;37.36;97732.59;4956637;28;20158;-91
2023/07/01 15:55:51;;;;;;;20.55;7.50;;;;;;;26.47;37.95;97764.13;4930995;29;20060;-91
2023/07/01 15:58:22;;;;;;;8.43;7.20;;;;;;;26.39;38.04;97771.22;4919420;29;20056;-94
2023/07/01 16:03:57;;;;;;;11.25;7.85;;;;;;;26.38;38.94;97782.88;4919525;29;20050;-92
2023/07/01 16:06:47;;;;;;;10.27;7.50;;;;;;;25.93;38.04;97714.91;4932325;29;20052;-93
2023/07/01 16:13:53;;;;;;;14.02;8.55;;;;;;;25.70;41.43;97776.88;4871149;29;20052;-89
2023/07/01 16:16:25;;;;;;;17.00;7.40;;;;;;;25.60;42.62;97786.44;4848266;29;20104;-88
2023/07/01 16:19:11;;;;;;;17.17;7.65;;;;;;;25.44;43.00;97776.94;4876914;29;20053;-90
2023/07/01 16:21:37;;;;;;;9.32;6.93;;;;;;;25.28;42.91;97782.66;5013463;23;20135;-93
2023/07/01 16:24:32;;;;;;;20.02;7.22;;;;;;;25.05;43.42;97781.75;4943610;28;20028;-91
2023/07/01 16:27:02;;;;;;;13.90;7.10;;;;;;;25.01;43.38;97780.31;4940873;28;20054;-93
2023/07/01 16:29:54;;;;;;;13.05;7.13;;;;;;;24.52;43.41;97728.31;4967615;28;20070;-92
2023/07/01 16:33:05;;;;;;;16.83;7.63;;;;;;;24.90;43.91;97811.41;4971859;28;20030;-94
2023/07/01 16:36:00;;;;;;;11.73;7.13;;;;;;;24.82;44.75;97810.03;4925510;28;20054;-91
2023/07/01 16:39:07;;;;;;;14.43;6.75;;;;;;;24.63;44.76;97803.41;4940074;28;20038;-91
2023/07/01 16:41:35;;;;;;;16.83;7.28;;;;;;;24.37;44.89;97774.59;4968939;28;20074;-88
2023/07/01 16:44:06;;;;;;;10.25;6.32;;;;;;;24.33;45.44;97769.13;4935378;28;20067;-87
2023/07/01 16:46:44;;;;;;;15.13;7.13;;;;;;;24.41;45.52;97796.91;4964624;28;20054;-89
2023/07/01 16:49:12;;;;;;;11.07;6.22;;;;;;;24.25;45.66;97784.53;4951241;28;20043;-86
2023/07/01 16:51:40;;;;;;;15.45;7.20;;;;;;;24.25;46.23;97798.50;4978674;28;20534;-85
2023/07/01 16:54:34;;;;;;;18.08;6.90;;;;;;;24.12;45.92;97778.13;4962997;28;20054;-85
2023/07/01 16:57:01;;;;;;;13.38;7.13;;;;;;;24.01;46.04;97772.84;4965718;28;20534;-87
2023/07/01 16:59:36;;;;;;;20.08;7.55;;;;;;;24.05;47.28;97793.06;4979620;28;20244;-85
2023/07/01 17:02:05;;;;;;;12.63;8.10;;;;;;;23.96;47.49;97778.97;4969702;28;20055;-88
2023/07/01 17:04:37;;;;;;;17.48;8.05;;;;;;;23.91;46.96;97796.25;4937563;29;20150;-85
2023/07/01 17:07:05;;;;;;;16.60;9.43;;;;;;;23.82;46.85;97788.50;4967924;28;20038;-86
2023/07/01 17:09:41;;;;;;;29.33;14.45;;;;;;;23.81;47.85;97789.72;4967632;28;20034;-92
2023/07/01 17:12:09;;;;;;;25.27;9.55;;;;;;;23.78;47.33;97789.81;4978330;28;20042;-85
2023/07/01 17:14:43;;;;;;;27.15;13.10;;;;;;;23.68;47.81;97800.03;4963660;28;20121;-84
2023/07/01 17:17:27;;;;;;;29.35;10.93;;;;;;;23.62;48.29;97798.97;4966330;28;20070;-86
2023/07/01 17:19:58;;;;;;;25.85;8.90;;;;;;;23.41;48.33;97769.59;4960316;28;20049;-83
2023/07/01 17:22:27;;;;;;;22.92;10.55;;;;;;;23.48;48.99;97783.38;4975277;28;20042;-82
2023/07/01 17:24:54;;;;;;;17.45;8.70;;;;;;;23.53;48.42;97807.94;4976228;28;20039;-83
2023/07/01 17:27:46;;;;;;;19.27;8.13;;;;;;;23.49;48.55;97810.03;4949994;28;20046;-83
2023/07/01 17:30:34;;;;;;;15.40;8.23;;;;;;;23.40;49.41;97812.66;4973762;28;20045;-90
2023/07/01 17:33:00;;;;;;;16.95;8.23;;;;;;;23.06;48.91;97772.06;4978024;28;20710;-85
2023/07/01 17:35:27;;;;;;;17.02;7.50;;;;;;;23.06;48.68;97772.06;4940224;28;20053;-84
2023/07/01 17:37:54;;;;;;;16.05;8.95;;;;;;;23.34;49.45;97809.59;4965151;28;20039;-86
2023/07/01 17:40:22;;;;;;;20.92;9.60;;;;;;;23.31;49.50;97807.72;4977101;28;20066;-92
2023/07/01 17:42:51;;;;;;;16.38;9.05;;;;;;;23.34;49.14;97806.81;4957332;28;20046;-89
2023/07/01 17:45:22;;;;;;;14.77;8.77;;;;;;;23.17;49.63;97788.50;4989071;28;20062;-88
2023/07/01 17:47:52;;;;;;;14.60;8.13;;;;;;;23.35;48.95;97813.19;4985355;28;20055;-92
2023/07/01 17:50:48;;;;;;;15.77;8.10;;;;;;;23.11;49.07;97776.31;4964493;28;20050;-83
2023/07/01 17:53:14;;;;;;;17.67;9.10;;;;;;;23.08;49.46;97779.97;4953664;28;20074;-84
2023/07/01 17:55:40;;;;;;;16.85;10.20;;;;;;;23.26;49.66;97804.66;4966059;29;20071;-90
2023/07/01 17:58:06;;;;;;;15.75;9.20;;;;;;;23.30;49.54;97830.44;4959237;29;20083;-85
2023/07/01 18:01:24;;;;;;;14.50;8.93;;;;;;;23.32;49.06;97828.00;4922498;29;20058;-88
2023/07/01 18:03:50;;;;;;;14.88;8.48;;;;;;;23.25;48.49;97817.03;4929892;28;20035;-94
2023/07/01 18:06:39;;;;;;;11.90;7.60;;;;;;;23.07;48.51;97790.34;4944367;29;20552;-91
2023/07/01 18:09:07;;;;;;;19.77;8.57;;;;;;;23.30;48.81;97827.66;4964275;29;20081;-90
2023/07/01 18:11:39;;;;;;;17.45;8.93;;;;;;;23.11;49.26;97781.88;4961975;29;20055;-87
2023/07/01 18:14:07;;;;;;;14.55;7.75;;;;;;;23.07;48.75;97793.13;4942199;29;20050;-87
2023/07/01 18:16:35;;;;;;;13.27;8.40;;;;;;;23.14;49.33;97797.75;4917005;29;20143;-86
2023/07/01 18:19:04;;;;;;;20.02;8.00;;;;;;;23.03;49.84;97797.22;4931360;29;20070;-90
2023/07/01 18:22:05;;;;;;;19.40;9.20;;;;;;;23.01;50.90;97814.34;4940023;29;20055;-82
2023/07/01 18:24:33;;;;;;;12.52;8.38;;;;;;;23.01;52.92;97835.88;4961593;29;20053;-88
2023/07/01 18:27:03;;;;;;;18.75;8.68;;;;;;;22.78;54.53;97820.03;4957529;29;20039;-86
2023/07/01 18:29:35;;;;;;;17.83;10.25;;;;;;;22.66;56.39;97850.13;4960000;29;20079;-92
2023/07/01 18:32:04;;;;;;;12.57;8.05;;;;;;;22.27;56.24;97850.91;4957591;29;20046;-86
2023/07/01 18:34:31;;;;;;;10.95;7.72;;;;;;;22.17;56.19;97847.13;4940105;29;20473;-88
2023/07/01 18:37:08;;;;;;;11.20;7.95;;;;;;;22.40;57.08;97887.25;4959072;29;20168;-86
2023/07/01 18:39:34;;;;;;;16.92;9.02;;;;;;;22.14;58.51;97861.06;4927360;29;20413;-83
2023/07/01 18:42:02;;;;;;;16.70;7.93;;;;;;;22.15;58.34;97884.91;4935488;29;20059;-88
2023/07/01 18:44:40;;;;;;;11.55;7.13;;;;;;;21.96;57.90;97881.66;4938766;29;20612;-89
2023/07/01 18:47:06;;;;;;;13.25;8.05;;;;;;;21.52;57.98;97833.53;4958736;29;20038;-89
2023/07/01 18:49:33;;;;;;;16.65;7.63;;;;;;;21.56;58.03;97850.16;4942869;29;20042;-88
2023/07/01 18:52:00;;;;;;;15.65;7.78;;;;;;;21.54;59.15;97866.47;4945454;29;20035;-86
2023/07/01 18:54:29;;;;;;;13.85;8.20;;;;;;;21.45;59.73;97866.22;4944773;29;20480;-89
2023/07/01 18:57:00;;;;;;;14.25;8.85;;;;;;;21.45;59.88;97880.91;4946732;28;20099;-86
2023/07/01 18:59:52;;;;;;;9.02;6.65;;;;;;;21.27;60.54;97883.16;4943549;29;20126;-84
2023/07/01 19:02:23;;;;;;;12.30;7.40;;;;;;;21.25;61.56;97894.66;4956909;29;20066;-89
2023/07/01 19:04:52;;;;;;;10.25;6.82;;;;;;;20.78;62.52;97838.19;4958229;28;20475;-86
2023/07/01 19:07:28;;;;;;;16.10;6.97;;;;;;;20.73;64.08;97858.88;4962577;29;20047;-90
2023/07/01 19:10:47;;;;;;;10.25;6.38;;;;;;;20.90;66.10;97903.50;4938387;29;20035;-86
2023/07/01 19:16:07;;;;;;;13.65;7.15;;;;;;;20.65;68.24;97899.03;4955972;23;20113;-88
2023/07/01 19:18:33;;;;;;;8.70;6.05;;;;;;;20.34;68.95;97887.06;4925846;29;20035;-86
2023/07/01 19:21:02;;;;;;;11.38;6.63;;;;;;;20.15;69.46;97866.25;4936233;29;20043;-90
2023/07/01 19:23:34;;;;;;;10.20;6.38;;;;;;;20.26;70.47;97880.78;4920376;29;20043;-87
2023/07/01 19:26:00;;;;;;;8.75;6.45;;;;;;;20.26;71.26;97875.25;4940877;29;20564;-89
2023/07/01 19:28:27;;;;;;;12.15;6.93;;;;;;;20.15;70.67;97878.13;4938782;29;20031;-86
2023/07/01 19:30:55;;;;;;;11.00;6.07;;;;;;;20.20;70.38;97890.78;4954632;29;20053;-89
2023/07/01 19:33:24;;;;;;;12.25;6.00;;;;;;;19.85;68.19;97842.78;4941813;29;20579;-90
2023/07/01 19:35:52;;;;;;;11.05;6.65;;;;;;;19.89;70.00;97857.41;4939054;29;20047;-89
2023/07/01 19:38:30;;;;;;;16.58;7.22;;;;;;;19.64;69.98;97835.47;4936506;29;20035;-93
2023/07/01 19:41:14;;;;;;;11.45;6.85;;;;;;;19.61;69.74;97818.84;4922165;29;20075;-89
2023/07/01 19:43:41;;;;;;;10.30;6.93;;;;;;;19.43;71.21;97791.25;4909044;29;20517;-92
2023/07/01 19:46:07;;;;;;;8.88;6.80;;;;;;;19.55;71.08;97823.22;4937034;29;20047;-91
2023/07/01 19:48:36;;;;;;;11.10;6.50;;;;;;;19.47;71.00;97806.66;4921127;29;20086;-89
2023/07/01 19:51:03;;;;;;;10.40;6.95;;;;;;;19.32;72.40;97777.50;4939620;29;20040;-91
2023/07/01 19:53:42;;;;;;;13.90;7.80;;;;;;;19.44;72.58;97815.03;4906894;29;20074;-91
2023/07/01 19:56:08;;;;;;;10.77;7.50;;;;;;;19.68;72.40;97846.50;4927385;29;20343;-92
2023/07/01 20:01:15;;;;;;;9.95;7.25;;;;;;;19.55;71.45;97817.69;4903747;29;20052;-91
2023/07/01 20:03:42;;;;;;;11.27;6.93;;;;;;;19.39;72.34;97796.03;4892808;23;20036;-91
2023/07/01 20:06:12;;;;;;;11.50;7.28;;;;;;;19.47;72.48;97806.66;4909081;29;20070;-93
2023/07/01 20:08:47;;;;;;;15.90;7.68;;;;;;;19.70;74.02;97853.22;4925313;29;20039;-93
2023/07/01 20:11:13;;;;;;;14.63;7.80;;;;;;;19.65;74.32;97858.41;4906003;29;20120;-94
2023/07/01 20:13:43;;;;;;;15.88;9.07;;;;;;;19.73;75.46;97875.78;4937980;29;20039;-91
2023/07/01 20:16:35;;;;;;;18.10;9.15;;;;;;;19.68;76.18;97877.00;4951240;28;20130;-88
2023/07/01 20:19:03;;;;;;;14.52;8.90;;;;;;;19.62;76.54;97876.63;4924410;29;20054;-94
2023/07/01 20:21:32;;;;;;;16.10;10.95;;;;;;;19.58;77.13;97886.16;4934871;29;20131;-93
2023/07/01 20:24:29;;;;;;;25.02;12.77;;;;;;;19.58;76.92;97886.94;4908736;29;20036;-93
2023/07/01 20:27:09;;;;;;;25.42;13.90;;;;;;;19.52;77.73;97885.81;4957131;28;20044;-93
2023/07/01 20:29:57;;;;;;;19.60;10.75;;;;;;;19.13;78.16;97827.91;4940942;29;21677;-93
2023/07/01 20:32:52;;;;;;;19.88;9.90;;;;;;;19.37;78.09;97857.44;4917426;29;20033;-89
2023/07/01 20:35:22;;;;;;;20.77;9.98;;;;;;;19.29;78.64;97866.97;4876564;29;20049;-90
2023/07/01 20:37:55;;;;;;;15.48;9.82;;;;;;;19.45;78.75;97897.72;4868410;29;20118;-92
2023/07/01 20:41:19;;;;;;;17.17;10.23;;;;;;;19.41;78.14;97885.88;4919907;23;20056;-93
2023/07/01 20:44:10;;;;;;;18.02;9.95;;;;;;;19.34;78.92;97887.94;4903649;29;20040;-90
2023/07/01 20:46:54;;;;;;;17.80;9.07;;;;;;;18.76;78.31;97809.94;4914332;29;20134;-90
2023/07/01 20:50:13;;;;;;;17.35;10.02;;;;;;;19.24;78.91;97892.34;4941396;29;20046;-90
2023/07/01 20:52:55;;;;;;;14.45;10.40;;;;;;;18.93;78.78;97833.19;4993013;22;20050;-90
2023/07/01 20:55:41;;;;;;;20.42;10.68;;;;;;;19.01;78.84;97854.91;4943210;28;20046;-90
2023/07/01 20:58:20;;;;;;;;;;;;;;;19.24;78.73;97889.59;4928792;28;20039;-90
2023/07/01 21:00:47;;;;;;;23.50;12.45;;;;;;;18.78;78.27;97824.19;4961806;28;20016;-92
2023/07/01 21:06:01;;;;;;;20.60;11.82;;;;;;;18.83;78.22;97842.34;614625;26;20328;-91
2023/07/01 21:09:20;;;;;;;18.90;11.73;;;;;;;19.15;78.54;97897.53;4973838;23;20055;-94
2023/07/01 21:15:26;;;;;;;29.13;12.75;;;;;;;18.71;79.11;97862.94;4964573;28;20067;-91
2023/07/01 21:18:45;;;;;;;20.13;11.73;;;;;;;18.93;79.10;97907.94;4948401;23;20511;-91
2023/07/01 21:22:08;;;;;;;17.52;11.35;;;;;;;18.87;78.88;97906.78;4933350;23;20317;-93
2023/07/01 21:24:40;;;;;;;16.42;10.98;;;;;;;18.51;79.39;97854.34;4956148;23;20048;-93
2023/07/01 21:30:38;;;;;;;16.48;11.23;;;;;;;18.67;80.02;97907.22;4961193;28;20043;-92
2023/07/01 21:33:32;;;;;;;16.27;10.70;;;;;;;18.59;80.07;97904.91;4979020;28;20031;-95
2023/07/01 21:36:05;;;;;;;17.83;10.95;;;;;;;18.26;80.05;97851.66;4972555;28;20439;-93
2023/07/01 21:38:31;;;;;;;16.13;10.52;;;;;;;18.24;80.04;97846.50;4942296;28;20063;-92
2023/07/01 21:41:13;;;;;;;15.18;10.27;;;;;;;18.44;79.73;97876.47;4947678;28;20067;-92
2023/07/01 21:43:41;;;;;;;15.65;10.65;;;;;;;18.47;79.83;97879.22;5119933;23;20051;-92
2023/07/01 21:46:20;;;;;;;;;;;;;;;18.63;79.60;97889.84;4958821;28;20050;-91
2023/07/01 21:53:49;;;;;;;13.52;10.25;;;;;;;18.56;79.71;97900.94;4964862;28;20046;-94
2023/07/01 21:57:10;;;;;;;15.50;10.43;;;;;;;18.53;79.57;97908.06;4919358;28;20141;-91
2023/07/01 21:59:36;;;;;;;17.83;10.85;;;;;;;18.20;79.21;97867.06;4925289;29;20043;-92
2023/07/01 22:02:20;;;;;;;16.57;10.67;;;;;;;18.30;79.79;97883.63;4977020;23;20142;-89
2023/07/01 22:05:25;;;;;;;16.48;11.25;;;;;;;18.46;80.11;97913.63;4951974;23;20054;-92
2023/07/01 22:08:08;;;;;;;17.53;11.67;;;;;;;18.46;79.90;97908.09;4895742;29;20099;-91